sensor_id;sensor_type;location;lat;lon;timestamp;temperature;humidity
59847;DHT22;45728;48.788;2.302;2023-04-07T00:02:05;9.80;99.90
59847;DHT22;45728;48.788;2.302;2023-04-07T00:04:31;9.70;99.90
59847;DHT22;45728;48.788;2.302;2023-04-07T00:06:57;9.70;99.90
59847;DHT22;45728;48.788;2.302;2023-04-07T00:09:23;9.60;99.90
59847;DHT22;45728;48.788;2.302;2023-04-07T00:11:49;9.60;99.90
59847;DHT22;45728;48.788;2.302;2023-04-07T00:14:16;9.60;99.90
59847;DHT22;45728;48.788;2.302;2023-04-07T00:16:42;9.60;99.90
59847;DHT22;45728;48.788;2.302;2023-04-07T00:19:08;9.60;99.90
59847;DHT22;45728;48.788;2.302;2023-04-07T00:21:34;9.50;99.90
59847;DHT22;45728;48.788;2.302;2023-04-07T00:24:00;9.40;99.90
59847;DHT22;45728;48.788;2.302;2023-04-07T00:26:26;9.40;99.90
59847;DHT22;45728;48.788;2.302;2023-04-07T00:28:57;9.50;99.90
59847;DHT22;45728;48.788;2.302;2023-04-07T00:31:23;9.40;99.90
59847;DHT22;45728;48.788;2.302;2023-04-07T00:33:49;9.40;99.90
59847;DHT22;45728;48.788;2.302;2023-04-07T00:36:15;9.30;99.90
59847;DHT22;45728;48.788;2.302;2023-04-07T00:38:41;9.30;99.90
59847;DHT22;45728;48.788;2.302;2023-04-07T00:41:07;9.30;99.90
59847;DHT22;45728;48.788;2.302;2023-04-07T00:43:34;9.30;99.90
59847;DHT22;45728;48.788;2.302;2023-04-07T00:46:00;9.30;99.90
59847;DHT22;45728;48.788;2.302;2023-04-07T00:48:26;9.30;99.90
59847;DHT22;45728;48.788;2.302;2023-04-07T00:50:52;9.40;99.90
59847;DHT22;45728;48.788;2.302;2023-04-07T00:53:18;9.30;99.90
59847;DHT22;45728;48.788;2.302;2023-04-07T00:55:45;9.30;99.90
59847;DHT22;45728;48.788;2.302;2023-04-07T00:58:11;9.30;99.90
59847;DHT22;45728;48.788;2.302;2023-04-07T01:00:42;9.30;99.90
59847;DHT22;45728;48.788;2.302;2023-04-07T01:03:23;9.30;99.90
59847;DHT22;45728;48.788;2.302;2023-04-07T01:06:05;9.30;99.90
59847;DHT22;45728;48.788;2.302;2023-04-07T01:11:16;9.20;99.90
59847;DHT22;45728;48.788;2.302;2023-04-07T01:13:48;9.30;99.90
59847;DHT22;45728;48.788;2.302;2023-04-07T01:16:22;9.30;99.90
59847;DHT22;45728;48.788;2.302;2023-04-07T01:18:53;9.20;99.90
59847;DHT22;45728;48.788;2.302;2023-04-07T01:21:21;9.20;99.90
59847;DHT22;45728;48.788;2.302;2023-04-07T01:26:36;9.20;99.90
59847;DHT22;45728;48.788;2.302;2023-04-07T01:29:29;9.10;99.90
59847;DHT22;45728;48.788;2.302;2023-04-07T01:32:01;9.10;99.90
59847;DHT22;45728;48.788;2.302;2023-04-07T01:34:29;9.10;99.90
59847;DHT22;45728;48.788;2.302;2023-04-07T01:36:58;9.00;99.90
59847;DHT22;45728;48.788;2.302;2023-04-07T01:39:26;9.00;99.90
59847;DHT22;45728;48.788;2.302;2023-04-07T01:41:53;9.00;99.90
59847;DHT22;45728;48.788;2.302;2023-04-07T01:44:20;9.00;99.90
59847;DHT22;45728;48.788;2.302;2023-04-07T01:46:47;9.00;99.90
59847;DHT22;45728;48.788;2.302;2023-04-07T01:49:15;9.00;99.90
59847;DHT22;45728;48.788;2.302;2023-04-07T01:51:43;8.90;99.90
59847;DHT22;45728;48.788;2.302;2023-04-07T01:54:15;9.10;99.90
59847;DHT22;45728;48.788;2.302;2023-04-07T01:56:43;9.10;99.90
59847;DHT22;45728;48.788;2.302;2023-04-07T01:59:10;9.00;99.90
59847;DHT22;45728;48.788;2.302;2023-04-07T02:01:36;9.00;99.90
59847;DHT22;45728;48.788;2.302;2023-04-07T02:04:31;9.00;99.90
59847;DHT22;45728;48.788;2.302;2023-04-07T02:07:02;8.90;99.90
59847;DHT22;45728;48.788;2.302;2023-04-07T02:09:32;9.00;99.90
59847;DHT22;45728;48.788;2.302;2023-04-07T02:12:00;8.90;99.90
59847;DHT22;45728;48.788;2.302;2023-04-07T02:14:27;8.90;99.90
59847;DHT22;45728;48.788;2.302;2023-04-07T02:16:55;8.80;99.90
59847;DHT22;45728;48.788;2.302;2023-04-07T02:19:21;8.90;99.90
59847;DHT22;45728;48.788;2.302;2023-04-07T02:21:49;8.80;99.90
59847;DHT22;45728;48.788;2.302;2023-04-07T02:24:19;8.80;99.90
59847;DHT22;45728;48.788;2.302;2023-04-07T02:26:46;8.70;99.90
59847;DHT22;45728;48.788;2.302;2023-04-07T02:29:12;8.70;99.90
59847;DHT22;45728;48.788;2.302;2023-04-07T02:31:38;8.70;99.90
59847;DHT22;45728;48.788;2.302;2023-04-07T02:34:05;8.70;99.90
59847;DHT22;45728;48.788;2.302;2023-04-07T02:36:31;8.60;99.90
59847;DHT22;45728;48.788;2.302;2023-04-07T02:38:57;8.60;99.90
59847;DHT22;45728;48.788;2.302;2023-04-07T02:41:23;8.60;99.90
59847;DHT22;45728;48.788;2.302;2023-04-07T02:43:49;8.60;99.90
59847;DHT22;45728;48.788;2.302;2023-04-07T02:46:15;8.60;99.90
59847;DHT22;45728;48.788;2.302;2023-04-07T02:48:41;8.50;99.90
59847;DHT22;45728;48.788;2.302;2023-04-07T02:51:07;8.60;99.90
59847;DHT22;45728;48.788;2.302;2023-04-07T02:53:33;8.50;99.90
59847;DHT22;45728;48.788;2.302;2023-04-07T02:56:00;8.50;99.90
59847;DHT22;45728;48.788;2.302;2023-04-07T02:58:26;8.50;99.90
59847;DHT22;45728;48.788;2.302;2023-04-07T03:00:52;8.50;99.90
59847;DHT22;45728;48.788;2.302;2023-04-07T03:03:18;8.50;99.90
59847;DHT22;45728;48.788;2.302;2023-04-07T03:05:44;8.40;99.90
59847;DHT22;45728;48.788;2.302;2023-04-07T03:08:10;8.40;99.90
59847;DHT22;45728;48.788;2.302;2023-04-07T03:10:36;8.40;99.90
59847;DHT22;45728;48.788;2.302;2023-04-07T03:13:03;8.40;99.90
59847;DHT22;45728;48.788;2.302;2023-04-07T03:15:29;8.30;99.90
59847;DHT22;45728;48.788;2.302;2023-04-07T03:17:55;8.40;99.90
59847;DHT22;45728;48.788;2.302;2023-04-07T03:20:21;8.40;99.90
59847;DHT22;45728;48.788;2.302;2023-04-07T03:22:47;8.40;99.90
59847;DHT22;45728;48.788;2.302;2023-04-07T03:25:13;8.40;99.90
59847;DHT22;45728;48.788;2.302;2023-04-07T03:27:39;8.40;99.90
59847;DHT22;45728;48.788;2.302;2023-04-07T03:30:06;8.40;99.90
59847;DHT22;45728;48.788;2.302;2023-04-07T03:32:32;8.40;99.90
59847;DHT22;45728;48.788;2.302;2023-04-07T03:34:58;8.30;99.90
59847;DHT22;45728;48.788;2.302;2023-04-07T03:37:24;8.40;99.90
59847;DHT22;45728;48.788;2.302;2023-04-07T03:39:50;8.30;99.90
59847;DHT22;45728;48.788;2.302;2023-04-07T03:42:16;8.20;99.90
59847;DHT22;45728;48.788;2.302;2023-04-07T03:44:42;8.20;99.90
59847;DHT22;45728;48.788;2.302;2023-04-07T03:47:08;8.20;99.90
59847;DHT22;45728;48.788;2.302;2023-04-07T03:49:35;8.20;99.90
59847;DHT22;45728;48.788;2.302;2023-04-07T03:52:04;8.10;99.90
59847;DHT22;45728;48.788;2.302;2023-04-07T03:54:30;8.10;99.90
59847;DHT22;45728;48.788;2.302;2023-04-07T03:56:56;8.10;99.90
59847;DHT22;45728;48.788;2.302;2023-04-07T03:59:22;8.20;99.90
59847;DHT22;45728;48.788;2.302;2023-04-07T04:01:48;8.10;99.90
59847;DHT22;45728;48.788;2.302;2023-04-07T04:04:14;8.10;99.90
59847;DHT22;45728;48.788;2.302;2023-04-07T04:06:40;8.10;99.90
59847;DHT22;45728;48.788;2.302;2023-04-07T04:09:06;8.10;99.90
59847;DHT22;45728;48.788;2.302;2023-04-07T04:11:32;8.00;99.90
59847;DHT22;45728;48.788;2.302;2023-04-07T04:13:58;8.00;99.90
59847;DHT22;45728;48.788;2.302;2023-04-07T04:16:25;8.10;99.90
59847;DHT22;45728;48.788;2.302;2023-04-07T04:18:51;8.10;99.90
59847;DHT22;45728;48.788;2.302;2023-04-07T04:21:17;8.10;99.90
59847;DHT22;45728;48.788;2.302;2023-04-07T04:23:43;8.10;99.90
59847;DHT22;45728;48.788;2.302;2023-04-07T04:26:09;8.10;99.90
59847;DHT22;45728;48.788;2.302;2023-04-07T04:28:35;8.00;99.90
59847;DHT22;45728;48.788;2.302;2023-04-07T04:31:01;8.00;99.90
59847;DHT22;45728;48.788;2.302;2023-04-07T04:33:27;8.00;99.90
59847;DHT22;45728;48.788;2.302;2023-04-07T04:35:53;8.00;99.90
59847;DHT22;45728;48.788;2.302;2023-04-07T04:38:20;8.00;99.90
59847;DHT22;45728;48.788;2.302;2023-04-07T04:40:46;8.00;99.90
59847;DHT22;45728;48.788;2.302;2023-04-07T04:43:12;8.00;99.90
59847;DHT22;45728;48.788;2.302;2023-04-07T04:45:38;8.10;99.90
59847;DHT22;45728;48.788;2.302;2023-04-07T04:48:04;8.10;99.90
59847;DHT22;45728;48.788;2.302;2023-04-07T04:50:31;8.10;99.90
59847;DHT22;45728;48.788;2.302;2023-04-07T04:52:57;8.10;99.90
59847;DHT22;45728;48.788;2.302;2023-04-07T04:55:23;8.10;99.90
59847;DHT22;45728;48.788;2.302;2023-04-07T04:57:49;8.00;99.90
59847;DHT22;45728;48.788;2.302;2023-04-07T05:00:15;8.00;99.90
59847;DHT22;45728;48.788;2.302;2023-04-07T05:02:41;8.00;99.90
59847;DHT22;45728;48.788;2.302;2023-04-07T05:05:08;8.00;99.90
59847;DHT22;45728;48.788;2.302;2023-04-07T05:07:34;8.00;99.90
59847;DHT22;45728;48.788;2.302;2023-04-07T05:10:00;7.90;99.90
59847;DHT22;45728;48.788;2.302;2023-04-07T05:12:26;7.90;99.90
59847;DHT22;45728;48.788;2.302;2023-04-07T05:14:52;7.90;99.90
59847;DHT22;45728;48.788;2.302;2023-04-07T05:17:18;7.90;99.90
59847;DHT22;45728;48.788;2.302;2023-04-07T05:19:44;8.00;99.90
59847;DHT22;45728;48.788;2.302;2023-04-07T05:22:10;7.90;99.90
59847;DHT22;45728;48.788;2.302;2023-04-07T05:24:37;7.90;99.90
59847;DHT22;45728;48.788;2.302;2023-04-07T05:27:03;8.00;99.90
59847;DHT22;45728;48.788;2.302;2023-04-07T05:29:29;8.10;99.90
59847;DHT22;45728;48.788;2.302;2023-04-07T05:31:55;8.00;99.90
59847;DHT22;45728;48.788;2.302;2023-04-07T05:34:21;8.00;99.90
59847;DHT22;45728;48.788;2.302;2023-04-07T05:36:47;8.00;99.90
59847;DHT22;45728;48.788;2.302;2023-04-07T05:39:13;8.00;99.90
59847;DHT22;45728;48.788;2.302;2023-04-07T05:41:39;8.00;99.90
59847;DHT22;45728;48.788;2.302;2023-04-07T05:44:06;8.00;99.90
59847;DHT22;45728;48.788;2.302;2023-04-07T05:46:32;8.00;99.90
59847;DHT22;45728;48.788;2.302;2023-04-07T05:48:58;8.10;99.90
59847;DHT22;45728;48.788;2.302;2023-04-07T05:51:24;8.10;99.90
59847;DHT22;45728;48.788;2.302;2023-04-07T05:53:51;8.00;99.90
59847;DHT22;45728;48.788;2.302;2023-04-07T05:56:17;8.00;99.90
59847;DHT22;45728;48.788;2.302;2023-04-07T05:58:43;8.00;99.90
59847;DHT22;45728;48.788;2.302;2023-04-07T06:01:09;8.00;99.90
59847;DHT22;45728;48.788;2.302;2023-04-07T06:03:35;8.00;99.90
59847;DHT22;45728;48.788;2.302;2023-04-07T06:06:01;8.10;99.90
59847;DHT22;45728;48.788;2.302;2023-04-07T06:08:27;8.00;99.90
59847;DHT22;45728;48.788;2.302;2023-04-07T06:10:53;8.00;99.90
59847;DHT22;45728;48.788;2.302;2023-04-07T06:13:19;8.00;99.90
59847;DHT22;45728;48.788;2.302;2023-04-07T06:15:45;7.80;99.90
59847;DHT22;45728;48.788;2.302;2023-04-07T06:18:11;7.90;99.90
59847;DHT22;45728;48.788;2.302;2023-04-07T06:20:37;7.90;99.90
59847;DHT22;45728;48.788;2.302;2023-04-07T06:23:03;7.90;99.90
59847;DHT22;45728;48.788;2.302;2023-04-07T06:25:30;7.90;99.90
59847;DHT22;45728;48.788;2.302;2023-04-07T06:27:56;7.90;99.90
59847;DHT22;45728;48.788;2.302;2023-04-07T06:30:22;7.80;99.90
59847;DHT22;45728;48.788;2.302;2023-04-07T06:32:48;7.90;99.90
59847;DHT22;45728;48.788;2.302;2023-04-07T06:35:14;7.90;99.90
59847;DHT22;45728;48.788;2.302;2023-04-07T06:37:40;7.80;99.90
59847;DHT22;45728;48.788;2.302;2023-04-07T06:40:06;7.80;99.90
59847;DHT22;45728;48.788;2.302;2023-04-07T06:42:33;7.90;99.90
59847;DHT22;45728;48.788;2.302;2023-04-07T06:44:59;7.90;99.90
59847;DHT22;45728;48.788;2.302;2023-04-07T06:47:25;7.90;99.90
59847;DHT22;45728;48.788;2.302;2023-04-07T06:49:51;7.90;99.90
59847;DHT22;45728;48.788;2.302;2023-04-07T06:52:17;7.90;99.90
59847;DHT22;45728;48.788;2.302;2023-04-07T06:54:43;8.00;99.90
59847;DHT22;45728;48.788;2.302;2023-04-07T06:57:09;8.00;99.90
59847;DHT22;45728;48.788;2.302;2023-04-07T06:59:37;7.90;99.90
59847;DHT22;45728;48.788;2.302;2023-04-07T07:02:03;8.00;99.90
59847;DHT22;45728;48.788;2.302;2023-04-07T07:04:30;8.10;99.90
59847;DHT22;45728;48.788;2.302;2023-04-07T07:06:56;8.20;99.90
59847;DHT22;45728;48.788;2.302;2023-04-07T07:09:22;8.40;99.90
59847;DHT22;45728;48.788;2.302;2023-04-07T07:11:48;8.40;99.90
59847;DHT22;45728;48.788;2.302;2023-04-07T07:14:14;8.50;99.90
59847;DHT22;45728;48.788;2.302;2023-04-07T07:16:40;8.60;99.90
59847;DHT22;45728;48.788;2.302;2023-04-07T07:19:06;8.70;99.90
59847;DHT22;45728;48.788;2.302;2023-04-07T07:21:32;8.70;99.90
59847;DHT22;45728;48.788;2.302;2023-04-07T07:23:58;8.80;99.90
59847;DHT22;45728;48.788;2.302;2023-04-07T07:26:25;8.90;99.90
59847;DHT22;45728;48.788;2.302;2023-04-07T07:28:51;8.90;99.90
59847;DHT22;45728;48.788;2.302;2023-04-07T07:31:17;8.80;99.90
59847;DHT22;45728;48.788;2.302;2023-04-07T07:33:43;8.90;99.90
59847;DHT22;45728;48.788;2.302;2023-04-07T07:36:11;8.90;99.90
59847;DHT22;45728;48.788;2.302;2023-04-07T07:38:38;9.00;99.90
59847;DHT22;45728;48.788;2.302;2023-04-07T07:41:06;9.00;99.90
59847;DHT22;45728;48.788;2.302;2023-04-07T07:43:50;8.90;99.90
59847;DHT22;45728;48.788;2.302;2023-04-07T07:46:16;9.10;99.90
59847;DHT22;45728;48.788;2.302;2023-04-07T07:48:42;9.20;99.90
59847;DHT22;45728;48.788;2.302;2023-04-07T07:51:08;9.20;99.90
59847;DHT22;45728;48.788;2.302;2023-04-07T07:53:34;9.20;99.90
59847;DHT22;45728;48.788;2.302;2023-04-07T07:56:00;9.20;99.90
59847;DHT22;45728;48.788;2.302;2023-04-07T07:58:27;9.30;99.90
59847;DHT22;45728;48.788;2.302;2023-04-07T08:00:53;9.30;99.90
59847;DHT22;45728;48.788;2.302;2023-04-07T08:03:19;9.30;99.90
59847;DHT22;45728;48.788;2.302;2023-04-07T08:05:47;9.50;99.90
59847;DHT22;45728;48.788;2.302;2023-04-07T08:08:14;9.50;99.90
59847;DHT22;45728;48.788;2.302;2023-04-07T08:10:40;9.60;99.90
59847;DHT22;45728;48.788;2.302;2023-04-07T08:13:06;9.70;99.90
59847;DHT22;45728;48.788;2.302;2023-04-07T08:15:32;9.80;99.90
59847;DHT22;45728;48.788;2.302;2023-04-07T08:17:58;9.80;99.90
59847;DHT22;45728;48.788;2.302;2023-04-07T08:20:26;9.80;99.90
59847;DHT22;45728;48.788;2.302;2023-04-07T08:22:52;10.00;99.90
59847;DHT22;45728;48.788;2.302;2023-04-07T08:25:18;10.00;99.90
59847;DHT22;45728;48.788;2.302;2023-04-07T08:27:45;10.00;99.90
59847;DHT22;45728;48.788;2.302;2023-04-07T08:30:11;10.10;99.90
59847;DHT22;45728;48.788;2.302;2023-04-07T08:32:43;10.00;99.90
59847;DHT22;45728;48.788;2.302;2023-04-07T08:35:10;10.10;99.90
59847;DHT22;45728;48.788;2.302;2023-04-07T08:37:37;10.20;99.90
59847;DHT22;45728;48.788;2.302;2023-04-07T08:40:04;10.20;99.90
59847;DHT22;45728;48.788;2.302;2023-04-07T08:42:33;10.10;99.90
59847;DHT22;45728;48.788;2.302;2023-04-07T08:45:05;10.30;99.90
59847;DHT22;45728;48.788;2.302;2023-04-07T08:47:34;10.40;99.90
59847;DHT22;45728;48.788;2.302;2023-04-07T08:50:06;10.50;99.90
59847;DHT22;45728;48.788;2.302;2023-04-07T08:52:43;10.50;99.90
59847;DHT22;45728;48.788;2.302;2023-04-07T08:55:10;10.60;99.90
59847;DHT22;45728;48.788;2.302;2023-04-07T08:57:37;10.70;99.90
59847;DHT22;45728;48.788;2.302;2023-04-07T09:00:03;10.70;99.90
59847;DHT22;45728;48.788;2.302;2023-04-07T09:02:38;10.70;99.90
59847;DHT22;45728;48.788;2.302;2023-04-07T09:05:07;10.70;99.90
59847;DHT22;45728;48.788;2.302;2023-04-07T09:07:37;10.80;99.90
59847;DHT22;45728;48.788;2.302;2023-04-07T09:10:06;10.90;99.90
59847;DHT22;45728;48.788;2.302;2023-04-07T09:12:33;11.00;99.90
59847;DHT22;45728;48.788;2.302;2023-04-07T09:14:59;11.10;99.90
59847;DHT22;45728;48.788;2.302;2023-04-07T09:17:27;11.10;99.90
59847;DHT22;45728;48.788;2.302;2023-04-07T09:19:58;11.20;99.90
59847;DHT22;45728;48.788;2.302;2023-04-07T09:25:11;11.40;99.90
59847;DHT22;45728;48.788;2.302;2023-04-07T09:27:38;11.50;99.90
59847;DHT22;45728;48.788;2.302;2023-04-07T09:30:12;11.70;99.90
59847;DHT22;45728;48.788;2.302;2023-04-07T09:32:39;11.70;99.90
59847;DHT22;45728;48.788;2.302;2023-04-07T09:35:08;11.70;99.90
59847;DHT22;45728;48.788;2.302;2023-04-07T09:37:34;11.90;99.90
59847;DHT22;45728;48.788;2.302;2023-04-07T09:40:01;12.10;99.90
59847;DHT22;45728;48.788;2.302;2023-04-07T09:42:27;12.20;99.90
59847;DHT22;45728;48.788;2.302;2023-04-07T09:44:59;12.30;99.90
59847;DHT22;45728;48.788;2.302;2023-04-07T09:47:30;12.60;99.90
59847;DHT22;45728;48.788;2.302;2023-04-07T09:49:56;13.30;99.90
59847;DHT22;45728;48.788;2.302;2023-04-07T09:52:53;13.60;99.90
59847;DHT22;45728;48.788;2.302;2023-04-07T09:55:22;13.50;99.90
59847;DHT22;45728;48.788;2.302;2023-04-07T09:57:49;13.50;99.90
59847;DHT22;45728;48.788;2.302;2023-04-07T10:00:16;13.50;99.90
59847;DHT22;45728;48.788;2.302;2023-04-07T10:02:42;12.90;99.90
59847;DHT22;45728;48.788;2.302;2023-04-07T10:05:09;12.60;99.90
59847;DHT22;45728;48.788;2.302;2023-04-07T10:07:36;12.60;99.90
59847;DHT22;45728;48.788;2.302;2023-04-07T10:10:03;12.80;99.90
59847;DHT22;45728;48.788;2.302;2023-04-07T10:12:32;12.80;99.90
59847;DHT22;45728;48.788;2.302;2023-04-07T10:14:59;12.90;99.90
59847;DHT22;45728;48.788;2.302;2023-04-07T10:17:27;13.20;99.90
59847;DHT22;45728;48.788;2.302;2023-04-07T10:19:57;13.10;99.90
59847;DHT22;45728;48.788;2.302;2023-04-07T10:22:26;12.90;99.90
59847;DHT22;45728;48.788;2.302;2023-04-07T10:25:05;12.90;99.90
59847;DHT22;45728;48.788;2.302;2023-04-07T10:27:40;12.90;99.90
59847;DHT22;45728;48.788;2.302;2023-04-07T10:30:19;12.80;99.90
59847;DHT22;45728;48.788;2.302;2023-04-07T10:32:50;12.60;99.90
59847;DHT22;45728;48.788;2.302;2023-04-07T10:35:16;12.70;99.90
59847;DHT22;45728;48.788;2.302;2023-04-07T10:40:32;13.10;99.90
59847;DHT22;45728;48.788;2.302;2023-04-07T10:42:59;13.30;99.90
59847;DHT22;45728;48.788;2.302;2023-04-07T10:48:12;14.20;99.90
59847;DHT22;45728;48.788;2.302;2023-04-07T10:50:38;14.10;99.90
59847;DHT22;45728;48.788;2.302;2023-04-07T10:53:12;14.30;99.90
59847;DHT22;45728;48.788;2.302;2023-04-07T10:55:40;13.80;99.90
59847;DHT22;45728;48.788;2.302;2023-04-07T10:58:24;13.70;99.90
59847;DHT22;45728;48.788;2.302;2023-04-07T11:03:29;14.20;99.90
59847;DHT22;45728;48.788;2.302;2023-04-07T11:06:13;14.60;99.90
59847;DHT22;45728;48.788;2.302;2023-04-07T11:08:44;14.90;99.90
59847;DHT22;45728;48.788;2.302;2023-04-07T11:11:14;15.10;99.90
59847;DHT22;45728;48.788;2.302;2023-04-07T11:13:44;15.10;99.90
59847;DHT22;45728;48.788;2.302;2023-04-07T11:16:18;14.90;99.90
59847;DHT22;45728;48.788;2.302;2023-04-07T11:18:45;14.40;99.90
59847;DHT22;45728;48.788;2.302;2023-04-07T11:21:17;14.10;99.90
59847;DHT22;45728;48.788;2.302;2023-04-07T11:23:44;13.70;99.90
59847;DHT22;45728;48.788;2.302;2023-04-07T11:26:13;13.40;99.90
59847;DHT22;45728;48.788;2.302;2023-04-07T11:28:52;13.30;99.90
59847;DHT22;45728;48.788;2.302;2023-04-07T11:31:26;13.50;99.90
59847;DHT22;45728;48.788;2.302;2023-04-07T11:36:31;14.20;99.90
59847;DHT22;45728;48.788;2.302;2023-04-07T11:38:58;14.40;99.90
59847;DHT22;45728;48.788;2.302;2023-04-07T11:41:26;14.60;99.90
59847;DHT22;45728;48.788;2.302;2023-04-07T11:44:05;14.50;99.90
59847;DHT22;45728;48.788;2.302;2023-04-07T11:46:32;14.60;99.90
59847;DHT22;45728;48.788;2.302;2023-04-07T11:49:12;15.20;99.40
59847;DHT22;45728;48.788;2.302;2023-04-07T11:51:39;15.70;99.80
59847;DHT22;45728;48.788;2.302;2023-04-07T11:54:06;15.90;99.20
59847;DHT22;45728;48.788;2.302;2023-04-07T11:56:45;15.10;99.20
59847;DHT22;45728;48.788;2.302;2023-04-07T11:59:24;14.60;99.90
59847;DHT22;45728;48.788;2.302;2023-04-07T12:01:51;14.10;99.90
59847;DHT22;45728;48.788;2.302;2023-04-07T12:04:18;14.00;99.90
59847;DHT22;45728;48.788;2.302;2023-04-07T12:06:46;13.90;99.90
59847;DHT22;45728;48.788;2.302;2023-04-07T12:09:29;14.10;99.20
59847;DHT22;45728;48.788;2.302;2023-04-07T12:11:56;14.40;99.60
59847;DHT22;45728;48.788;2.302;2023-04-07T12:14:24;14.70;99.40
59847;DHT22;45728;48.788;2.302;2023-04-07T12:16:50;14.90;99.40
59847;DHT22;45728;48.788;2.302;2023-04-07T12:19:17;14.80;97.00
59847;DHT22;45728;48.788;2.302;2023-04-07T12:21:44;14.50;97.00
59847;DHT22;45728;48.788;2.302;2023-04-07T12:24:10;14.70;97.50
59847;DHT22;45728;48.788;2.302;2023-04-07T12:26:36;14.90;97.00
59847;DHT22;45728;48.788;2.302;2023-04-07T12:29:02;15.20;97.60
59847;DHT22;45728;48.788;2.302;2023-04-07T12:31:33;15.60;97.70
59847;DHT22;45728;48.788;2.302;2023-04-07T12:33:59;15.60;98.20
59847;DHT22;45728;48.788;2.302;2023-04-07T12:36:26;15.20;98.20
59847;DHT22;45728;48.788;2.302;2023-04-07T12:38:53;14.60;98.60
59847;DHT22;45728;48.788;2.302;2023-04-07T12:41:19;14.30;99.00
59847;DHT22;45728;48.788;2.302;2023-04-07T12:43:45;14.30;99.20
59847;DHT22;45728;48.788;2.302;2023-04-07T12:46:11;14.30;99.00
59847;DHT22;45728;48.788;2.302;2023-04-07T12:48:37;14.60;99.20
59847;DHT22;45728;48.788;2.302;2023-04-07T12:51:04;14.60;98.10
59847;DHT22;45728;48.788;2.302;2023-04-07T12:53:30;14.90;97.70
59847;DHT22;45728;48.788;2.302;2023-04-07T12:55:56;14.90;97.90
59847;DHT22;45728;48.788;2.302;2023-04-07T12:58:23;15.10;97.80
59847;DHT22;45728;48.788;2.302;2023-04-07T13:00:51;15.50;98.30
59847;DHT22;45728;48.788;2.302;2023-04-07T13:03:18;15.80;98.00
59847;DHT22;45728;48.788;2.302;2023-04-07T13:05:44;15.40;98.40
59847;DHT22;45728;48.788;2.302;2023-04-07T13:08:10;15.40;98.30
59847;DHT22;45728;48.788;2.302;2023-04-07T13:10:36;14.60;98.60
59847;DHT22;45728;48.788;2.302;2023-04-07T13:13:02;14.40;98.70
59847;DHT22;45728;48.788;2.302;2023-04-07T13:15:28;14.30;98.70
59847;DHT22;45728;48.788;2.302;2023-04-07T13:17:55;14.30;98.60
59847;DHT22;45728;48.788;2.302;2023-04-07T13:20:21;14.60;98.20
59847;DHT22;45728;48.788;2.302;2023-04-07T13:22:47;14.60;97.70
59847;DHT22;45728;48.788;2.302;2023-04-07T13:25:13;14.90;97.90
59847;DHT22;45728;48.788;2.302;2023-04-07T13:27:39;14.80;97.80
59847;DHT22;45728;48.788;2.302;2023-04-07T13:30:06;15.00;97.90
59847;DHT22;45728;48.788;2.302;2023-04-07T13:32:32;15.40;98.60
59847;DHT22;45728;48.788;2.302;2023-04-07T13:34:58;15.80;98.20
59847;DHT22;45728;48.788;2.302;2023-04-07T13:37:24;15.80;97.70
59847;DHT22;45728;48.788;2.302;2023-04-07T13:39:51;15.50;97.90
59847;DHT22;45728;48.788;2.302;2023-04-07T13:42:17;15.40;98.00
59847;DHT22;45728;48.788;2.302;2023-04-07T13:44:45;15.10;97.90
59847;DHT22;45728;48.788;2.302;2023-04-07T13:47:13;15.00;97.80
59847;DHT22;45728;48.788;2.302;2023-04-07T13:49:47;15.00;97.90
59847;DHT22;45728;48.788;2.302;2023-04-07T13:52:14;15.10;97.90
59847;DHT22;45728;48.788;2.302;2023-04-07T13:54:41;15.50;97.20
59847;DHT22;45728;48.788;2.302;2023-04-07T13:57:07;15.50;97.10
59847;DHT22;45728;48.788;2.302;2023-04-07T13:59:33;15.30;98.00
59847;DHT22;45728;48.788;2.302;2023-04-07T14:01:59;15.00;98.60
59847;DHT22;45728;48.788;2.302;2023-04-07T14:04:26;14.70;98.70
59847;DHT22;45728;48.788;2.302;2023-04-07T14:06:52;14.70;98.80
59847;DHT22;45728;48.788;2.302;2023-04-07T14:09:19;14.70;98.80
59847;DHT22;45728;48.788;2.302;2023-04-07T14:11:45;14.60;98.40
59847;DHT22;45728;48.788;2.302;2023-04-07T14:14:11;14.50;98.70
59847;DHT22;45728;48.788;2.302;2023-04-07T14:16:37;14.70;98.40
59847;DHT22;45728;48.788;2.302;2023-04-07T14:19:03;14.70;98.80
59847;DHT22;45728;48.788;2.302;2023-04-07T14:21:30;14.90;98.70
59847;DHT22;45728;48.788;2.302;2023-04-07T14:23:56;15.20;99.00
59847;DHT22;45728;48.788;2.302;2023-04-07T14:26:22;15.30;98.20
59847;DHT22;45728;48.788;2.302;2023-04-07T14:28:48;15.40;98.40
59847;DHT22;45728;48.788;2.302;2023-04-07T14:31:15;15.20;98.60
59847;DHT22;45728;48.788;2.302;2023-04-07T14:33:42;14.90;98.70
59847;DHT22;45728;48.788;2.302;2023-04-07T14:36:08;14.70;98.70
59847;DHT22;45728;48.788;2.302;2023-04-07T14:38:36;14.70;98.80
59847;DHT22;45728;48.788;2.302;2023-04-07T14:41:02;14.70;98.70
59847;DHT22;45728;48.788;2.302;2023-04-07T14:43:29;14.40;98.80
59847;DHT22;45728;48.788;2.302;2023-04-07T14:45:55;14.30;99.20
59847;DHT22;45728;48.788;2.302;2023-04-07T14:48:22;14.30;98.80
59847;DHT22;45728;48.788;2.302;2023-04-07T14:50:49;14.20;99.10
59847;DHT22;45728;48.788;2.302;2023-04-07T14:53:15;14.30;98.90
59847;DHT22;45728;48.788;2.302;2023-04-07T14:55:42;14.20;98.50
59847;DHT22;45728;48.788;2.302;2023-04-07T14:58:08;14.10;98.50
59847;DHT22;45728;48.788;2.302;2023-04-07T15:00:34;14.30;98.30
59847;DHT22;45728;48.788;2.302;2023-04-07T15:03:00;14.70;98.00
59847;DHT22;45728;48.788;2.302;2023-04-07T15:05:28;14.90;97.90
59847;DHT22;45728;48.788;2.302;2023-04-07T15:07:54;15.20;97.10
59847;DHT22;45728;48.788;2.302;2023-04-07T15:10:20;15.20;96.60
59847;DHT22;45728;48.788;2.302;2023-04-07T15:12:46;15.30;97.10
59847;DHT22;45728;48.788;2.302;2023-04-07T15:15:14;15.40;97.10
59847;DHT22;45728;48.788;2.302;2023-04-07T15:17:40;15.10;97.30
59847;DHT22;45728;48.788;2.302;2023-04-07T15:20:07;15.00;97.60
59847;DHT22;45728;48.788;2.302;2023-04-07T15:22:34;15.20;97.90
59847;DHT22;45728;48.788;2.302;2023-04-07T15:25:00;15.30;97.50
59847;DHT22;45728;48.788;2.302;2023-04-07T15:27:28;14.90;97.20
59847;DHT22;45728;48.788;2.302;2023-04-07T15:29:54;14.70;97.60
59847;DHT22;45728;48.788;2.302;2023-04-07T15:32:20;14.60;97.80
59847;DHT22;45728;48.788;2.302;2023-04-07T15:34:48;14.70;97.70
59847;DHT22;45728;48.788;2.302;2023-04-07T15:37:14;14.70;97.90
59847;DHT22;45728;48.788;2.302;2023-04-07T15:39:42;14.70;98.50
59847;DHT22;45728;48.788;2.302;2023-04-07T15:42:08;14.90;99.20
59847;DHT22;45728;48.788;2.302;2023-04-07T15:44:37;14.40;99.90
59847;DHT22;45728;48.788;2.302;2023-04-07T15:47:05;14.50;99.90
59847;DHT22;45728;48.788;2.302;2023-04-07T15:49:31;14.70;99.90
59847;DHT22;45728;48.788;2.302;2023-04-07T15:51:58;14.70;99.90
59847;DHT22;45728;48.788;2.302;2023-04-07T15:54:26;14.70;99.90
59847;DHT22;45728;48.788;2.302;2023-04-07T15:56:52;14.40;99.90
59847;DHT22;45728;48.788;2.302;2023-04-07T15:59:18;14.50;99.60
59847;DHT22;45728;48.788;2.302;2023-04-07T16:01:44;14.40;99.90